Time;durP1;ratioP1;P1;durP2;ratioP2;P2;SDS_P1;SDS_P2;PMS_P1;PMS_P2;Temp;Humidity;BMP_temperature;BMP_pressure;BME280_temperature;BME280_humidity;BME280_pressure;Samples;Min_cycle;Max_cycle;Signal;HPM_P1;HPM_P2
2023/10/19 00:02:01;;;;;;;;;0.00;0.00;;;;;17.21;83.22;99112.97;5016838;28;45453;-40
2023/10/19 00:04:32;;;;;;;;;2.75;1.00;;;;;17.23;83.59;99119.97;5023107;28;45552;-40
2023/10/19 00:06:57;;;;;;;;;3.33;0.00;;;;;17.16;83.85;99102.09;5036501;28;46206;-40
2023/10/19 00:09:22;;;;;;;;;1.00;1.00;;;;;17.23;84.58;99115.41;5036693;28;45348;-40
2023/10/19 00:11:51;;;;;;;;;2.00;2.00;;;;;17.22;84.06;99113.78;5036635;28;45420;-41
2023/10/19 00:14:17;;;;;;;;;3.75;1.00;;;;;17.23;84.51;99106.53;5037235;28;45404;-41
2023/10/19 00:16:52;;;;;;;;;1.00;1.00;;;;;17.23;84.52;99114.59;5036484;28;45983;-41
2023/10/19 00:19:19;;;;;;;;;4.25;0.75;;;;;17.23;83.96;99109.22;5036534;28;45398;-41
2023/10/19 00:21:54;;;;;;;;;0.00;0.00;;;;;17.20;84.21;99105.97;5036856;28;45335;-41
2023/10/19 00:24:23;;;;;;;;;0.75;0.00;;;;;17.23;83.98;99115.41;5036860;28;45382;-40
2023/10/19 00:26:48;;;;;;;;;3.25;1.00;;;;;17.13;84.22;99105.22;5036214;28;46353;-41
2023/10/19 00:29:30;;;;;;;;;2.00;2.00;;;;;17.21;83.70;99110.28;5036316;28;45303;-39
2023/10/19 00:31:56;;;;;;;;;5.00;1.00;;;;;17.15;84.04;99096.94;5036279;28;45241;-39
2023/10/19 00:34:21;;;;;;;;;2.75;1.00;;;;;17.27;83.66;99115.78;5036594;28;45547;-41
2023/10/19 00:36:48;;;;;;;;;1.00;1.00;;;;;17.21;84.32;99107.59;5036235;28;46867;-41
2023/10/19 00:39:20;;;;;;;;;3.00;1.00;;;;;17.25;84.23;99113.34;5036302;28;45382;-41
2023/10/19 00:41:47;;;;;;;;;0.33;0.33;;;;;17.19;84.28;99098.13;5035391;28;45359;-41
2023/10/19 00:44:16;;;;;;;;;1.00;1.00;;;;;17.28;84.67;99104.00;5036491;28;45327;-41
2023/10/19 00:49:09;;;;;;;;;2.67;2.67;;;;;17.26;84.44;99106.91;5036161;28;45388;-41
2023/10/19 00:52:02;;;;;;;;;2.67;2.00;;;;;17.27;84.49;99100.47;5036079;28;45348;-40
2023/10/19 00:54:50;;;;;;;;;6.67;2.67;;;;;17.24;84.57;99086.69;5036149;28;45340;-42
2023/10/19 00:57:20;;;;;;;;;1.00;1.00;;;;;17.21;84.96;99077.22;5035861;28;46362;-40
2023/10/19 00:59:53;;;;;;;;;2.00;2.00;;;;;17.21;85.26;99078.03;5035807;28;45354;-41
2023/10/19 01:05:00;;;;;;;;;2.33;1.67;;;;;17.18;85.68;99073.13;5035603;28;45514;-42
2023/10/19 01:07:27;;;;;;;;;1.00;1.00;;;;;17.19;85.49;99077.47;5035495;28;47096;-41
2023/10/19 01:10:00;;;;;;;;;3.00;1.00;;;;;17.08;85.96;99058.63;5035689;28;45359;-40
2023/10/19 01:15:49;;;;;;;;;3.00;1.00;;;;;17.17;86.40;99065.28;5035921;28;45267;-41
2023/10/19 01:18:10;;;;;;;;;7.00;2.33;;;;;17.19;86.47;99065.88;5030478;28;46028;-40
2023/10/19 01:20:50;;;;;;;;;3.00;3.00;;;;;17.17;86.74;99066.09;5035557;28;45420;-41
2023/10/19 01:23:26;;;;;;;;;3.33;2.67;;;;;17.15;86.67;99051.25;5035795;28;45353;-41
2023/10/19 01:28:25;;;;;;;;;3.67;1.33;;;;;17.17;86.87;99046.47;5035065;28;45819;-41
2023/10/19 01:30:51;;;;;;;;;2.33;2.00;;;;;17.14;87.57;99042.38;5034543;28;45440;-40
2023/10/19 01:33:18;;;;;;;;;3.67;2.33;;;;;17.12;87.71;99049.88;5035792;28;45415;-41
2023/10/19 01:38:31;;;;;;;;;3.00;3.00;;;;;17.13;88.03;99029.19;5035086;28;45705;-41
2023/10/19 01:41:01;;;;;;;;;4.00;2.00;;;;;17.04;86.95;99009.91;5035169;28;45435;-41
2023/10/19 01:43:32;;;;;;;;;2.00;2.00;;;;;17.10;88.16;99018.91;5035022;28;45293;-41
2023/10/19 01:46:13;;;;;;;;;5.00;2.33;;;;;17.09;88.56;99020.78;5034679;28;45483;-41
2023/10/19 01:48:42;;;;;;;;;5.00;2.75;;;;;17.08;88.12;99008.38;5034970;28;46406;-41
2023/10/19 01:51:13;;;;;;;;;2.25;1.00;;;;;17.09;88.41;99007.34;5034970;28;45373;-41
2023/10/19 01:53:39;;;;;;;;;4.50;3.00;;;;;16.98;88.73;98975.06;5035088;28;45415;-40
2023/10/19 01:56:09;;;;;;;;;5.75;2.00;;;;;17.08;88.51;99004.88;5035238;28;45375;-41
2023/10/19 01:58:36;;;;;;;;;5.33;2.67;;;;;17.06;88.56;98996.22;5037701;28;46385;-41
2023/10/19 02:01:06;;;;;;;;;3.00;1.67;;;;;17.05;89.04;98995.41;5038569;28;45356;-40
2023/10/19 02:03:32;;;;;;;;;4.00;2.67;;;;;17.04;89.26;98982.22;5030277;28;45431;-40
2023/10/19 02:05:59;;;;;;;;;1.33;0.00;;;;;17.03;89.47;98991.34;5038885;28;45398;-41
2023/10/19 02:08:26;;;;;;;;;2.25;1.00;;;;;17.05;88.59;98987.34;5038256;28;46500;-41
2023/10/19 02:10:52;;;;;;;;;2.00;0.75;;;;;17.03;88.56;98994.84;5038227;28;45345;-41
2023/10/19 02:13:19;;;;;;;;;4.00;2.00;;;;;16.98;88.97;98981.28;5038726;28;45316;-40
2023/10/19 02:15:44;;;;;;;;;2.75;1.75;;;;;17.04;88.26;98977.66;5038318;28;45514;-39
2023/10/19 02:18:10;;;;;;;;;1.75;1.00;;;;;17.03;88.38;98983.28;5038391;28;45665;-41
2023/10/19 02:20:40;;;;;;;;;2.00;2.00;;;;;17.00;89.25;98960.38;5038326;28;45450;-41
2023/10/19 02:23:07;;;;;;;;;2.25;2.25;;;;;16.99;89.86;98960.63;5038094;28;45719;-41
2023/10/19 02:25:36;;;;;;;;;3.75;2.00;;;;;16.99;89.21;98964.13;5037794;28;45586;-41
2023/10/19 02:28:03;;;;;;;;;3.25;1.00;;;;;16.96;89.53;98962.69;5037647;28;47121;-48
2023/10/19 02:30:30;;;;;;;;;3.00;2.00;;;;;16.94;89.52;98947.88;5038040;28;45459;-40
2023/10/19 02:32:56;;;;;;;;;6.67;2.00;;;;;16.91;89.90;98945.66;5037901;28;45309;-41
2023/10/19 02:35:21;;;;;;;;;4.00;1.00;;;;;16.90;89.62;98944.03;5038251;28;45359;-41
2023/10/19 02:37:46;;;;;;;;;5.33;2.00;;;;;16.82;89.60;98939.81;5038267;28;45379;-42
2023/10/19 02:40:19;;;;;;;;;5.00;2.00;;;;;16.93;90.39;98954.28;5019798;28;49061;-41
2023/10/19 02:42:47;;;;;;;;;2.00;1.00;;;;;16.92;89.71;98956.16;5037773;28;45407;-41
2023/10/19 02:45:15;;;;;;;;;2.00;2.00;;;;;16.86;89.60;98949.03;5038018;28;45549;-42
2023/10/19 02:47:42;;;;;;;;;0.25;0.25;;;;;16.87;90.04;98950.66;5037479;28;47129;-40
2023/10/19 02:50:11;;;;;;;;;4.67;1.00;;;;;16.86;90.70;98946.34;5037688;28;45351;-41
2023/10/19 02:52:37;;;;;;;;;4.67;1.33;;;;;16.90;89.50;98944.84;5037612;28;45384;-41
2023/10/19 02:55:04;;;;;;;;;3.00;1.67;;;;;16.91;90.15;98940.28;5037932;28;45371;-41
2023/10/19 02:57:31;;;;;;;;;3.00;3.00;;;;;16.89;89.93;98943.19;5037510;28;46171;-40
2023/10/19 02:59:58;;;;;;;;;2.50;1.75;;;;;16.90;89.71;98944.84;5037494;28;45410;-41
2023/10/19 03:02:25;;;;;;;;;5.33;2.00;;;;;16.87;89.48;98950.66;5037467;28;45455;-40
2023/10/19 03:04:52;;;;;;;;;1.67;1.67;;;;;16.82;89.60;98942.50;5023795;28;46019;-41
2023/10/19 03:07:18;;;;;;;;;2.00;1.33;;;;;16.86;89.77;98937.47;5017503;28;47380;-40
2023/10/19 03:09:53;;;;;;;;;2.00;1.75;;;;;16.77;89.38;98930.78;5016535;28;45285;-42
2023/10/19 03:12:18;;;;;;;;;1.67;1.67;;;;;16.84;89.88;98945.75;5017573;28;45278;-41
2023/10/19 03:14:47;;;;;;;;;5.00;1.75;;;;;16.82;89.81;98937.13;5017492;28;45319;-41
2023/10/19 03:17:12;;;;;;;;;7.25;2.00;;;;;16.76;89.72;98915.72;5016356;28;46244;-41
2023/10/19 03:19:38;;;;;;;;;5.00;2.00;;;;;16.76;90.09;98926.47;5017195;28;45345;-40
2023/10/19 03:22:05;;;;;;;;;2.00;2.00;;;;;16.67;89.69;98912.53;5017358;28;45780;-40
2023/10/19 03:24:42;;;;;;;;;6.50;1.25;;;;;16.75;90.37;98931.03;5017566;28;45522;-41
2023/10/19 03:27:18;;;;;;;;;3.00;3.00;;;;;16.73;89.93;98913.50;5017106;28;47189;-47
2023/10/19 03:29:54;;;;;;;;;3.50;2.25;;;;;16.73;90.45;98932.28;5016912;28;45363;-41
2023/10/19 03:32:26;;;;;;;;;2.50;1.00;;;;;16.69;90.35;98916.63;4999453;28;45318;-41
2023/10/19 03:34:55;;;;;;;;;3.67;2.33;;;;;16.62;91.34;98913.22;5017401;28;45332;-41
2023/10/19 03:37:25;;;;;;;;;3.50;2.00;;;;;16.65;90.71;98911.97;5017052;28;46148;-41
2023/10/19 03:39:51;;;;;;;;;5.33;3.67;;;;;16.59;91.74;98908.31;4999200;28;45345;-42
2023/10/19 03:42:17;;;;;;;;;4.33;2.00;;;;;16.60;91.70;98918.03;5017332;28;45257;-40
2023/10/19 03:47:18;;;;;;;;;5.00;2.00;;;;;16.56;90.28;98911.47;5016865;28;45490;-40
2023/10/19 03:49:44;;;;;;;;;2.33;2.33;;;;;16.50;91.17;98898.97;5016430;28;45393;-42
2023/10/19 03:54:41;;;;;;;;;4.00;3.00;;;;;16.57;92.05;98898.88;5016896;28;45328;-41
2023/10/19 03:57:22;;;;;;;;;3.00;3.00;;;;;16.55;92.54;98888.34;5016585;28;46197;-41
2023/10/19 03:59:57;;;;;;;;;4.33;4.00;;;;;16.59;92.31;98888.72;5016300;28;45401;-41
2023/10/19 04:02:24;;;;;;;;;4.00;3.00;;;;;16.53;91.96;98890.47;5016636;28;45388;-42
2023/10/19 04:04:52;;;;;;;;;4.67;2.00;;;;;16.54;92.29;98902.81;5030561;28;45319;-41
2023/10/19 04:07:20;;;;;;;;;5.00;3.00;;;;;16.55;92.42;98884.84;5036419;28;47001;-41
2023/10/19 04:12:30;;;;;;;;;4.00;1.00;;;;;16.52;92.66;98879.94;5036596;28;45316;-41
2023/10/19 04:15:01;;;;;;;;;6.67;5.00;;;;;16.53;92.71;98878.91;5036431;28;45435;-40
2023/10/19 04:17:27;;;;;;;;;8.67;7.00;;;;;16.51;93.12;98873.75;5036219;28;47188;-41
2023/10/19 04:19:52;;;;;;;;;5.67;4.00;;;;;16.50;93.38;98874.81;5035944;28;45463;-41
2023/10/19 04:22:24;;;;;;;;;7.33;4.67;;;;;16.49;93.64;98867.81;5035723;28;45546;-41
2023/10/19 04:24:50;;;;;;;;;6.33;3.67;;;;;16.48;93.72;98858.13;5036683;28;45331;-41
2023/10/19 04:27:16;;;;;;;;;5.33;5.33;;;;;16.51;93.50;98863.00;5036105;28;46272;-40
2023/10/19 04:29:43;;;;;;;;;4.67;2.00;;;;;16.52;93.59;98862.00;5036302;28;45378;-41
2023/10/19 04:32:14;;;;;;;;;6.33;3.00;;;;;16.51;93.75;98851.47;5036084;28;45425;-40
2023/10/19 04:34:40;;;;;;;;;4.67;3.00;;;;;16.51;93.56;98848.78;5036306;28;45424;-40
2023/10/19 04:37:06;;;;;;;;;5.67;2.67;;;;;16.41;93.14;98828.69;5036117;28;46333;-40
2023/10/19 04:39:32;;;;;;;;;3.00;1.00;;;;;16.49;93.14;98838.28;5035196;28;45483;-40
2023/10/19 04:41:57;;;;;;;;;2.00;2.00;;;;;16.51;93.22;98832.69;5036329;28;45333;-41
2023/10/19 04:44:22;;;;;;;;;3.00;1.33;;;;;16.50;93.58;98828.38;5036070;28;45348;-40
2023/10/19 04:46:48;;;;;;;;;5.33;2.00;;;;;16.44;93.73;98822.06;5036224;28;46383;-41
2023/10/19 04:49:16;;;;;;;;;4.33;1.67;;;;;16.44;94.13;98822.06;5035903;28;45732;-41
2023/10/19 04:51:43;;;;;;;;;5.00;2.00;;;;;16.44;93.88;98822.88;5036177;28;45451;-40
2023/10/19 04:54:08;;;;;;;;;4.67;1.00;;;;;16.44;94.01;98822.06;5036308;28;45261;-41
2023/10/19 04:56:35;;;;;;;;;2.33;2.33;;;;;16.44;94.23;98816.69;5018103;28;46031;-41
2023/10/19 04:59:02;;;;;;;;;2.00;2.00;;;;;16.35;93.98;98808.19;5035681;28;45294;-41
2023/10/19 05:01:28;;;;;;;;;4.67;2.00;;;;;16.38;94.26;98799.63;5035921;28;45367;-41
2023/10/19 05:03:53;;;;;;;;;2.00;2.00;;;;;16.41;94.16;98793.00;5035818;28;45327;-41
2023/10/19 05:06:18;;;;;;;;;3.33;2.00;;;;;16.41;94.07;98793.81;5036010;28;46179;-41
2023/10/19 05:08:44;;;;;;;;;4.33;2.00;;;;;16.41;94.15;98791.13;5035818;28;45402;-41
2023/10/19 05:11:09;;;;;;;;;3.67;3.00;;;;;16.41;93.98;98788.44;5035877;28;45388;-40
2023/10/19 05:13:35;;;;;;;;;7.33;3.00;;;;;16.41;94.12;98784.94;5036120;28;45278;-41
2023/10/19 05:16:00;;;;;;;;;3.33;2.00;;;;;16.38;93.98;98799.63;5035621;28;46085;-39
2023/10/19 05:18:26;;;;;;;;;2.00;1.67;;;;;16.39;93.96;98805.81;5035707;28;45402;-41
2023/10/19 05:20:57;;;;;;;;;3.00;2.00;;;;;16.38;93.84;98790.78;5035748;28;45418;-40
2023/10/19 05:23:24;;;;;;;;;2.67;2.00;;;;;16.41;93.48;98793.00;5035762;28;46545;-40
2023/10/19 05:25:52;;;;;;;;;5.33;2.67;;;;;16.29;93.75;98763.47;5035410;28;46987;-41
2023/10/19 05:28:18;;;;;;;;;4.00;2.00;;;;;16.36;93.93;98766.88;5035368;28;45343;-40
2023/10/19 05:30:44;;;;;;;;;8.00;2.33;;;;;16.43;93.33;98767.59;5035294;28;45516;-40
2023/10/19 05:33:09;;;;;;;;;5.00;4.00;;;;;16.43;92.95;98761.38;5038164;28;45328;-41
2023/10/19 05:35:40;;;;;;;;;4.00;4.00;;;;;16.43;92.78;98756.84;5038235;28;49093;-40
2023/10/19 05:38:05;;;;;;;;;4.00;4.00;;;;;16.41;93.53;98736.66;5039074;28;45379;-42
2023/10/19 05:40:31;;;;;;;;;6.33;4.00;;;;;16.44;93.15;98725.47;5039112;28;45631;-42
2023/10/19 05:42:57;;;;;;;;;8.00;5.33;;;;;16.42;93.39;98725.66;5021105;28;45477;-41
2023/10/19 05:45:24;;;;;;;;;3.00;1.67;;;;;16.43;92.77;98730.00;5038785;28;46180;-42
2023/10/19 05:47:49;;;;;;;;;4.00;2.00;;;;;16.44;92.70;98736.19;5038651;28;45426;-39
2023/10/19 05:50:14;;;;;;;;;4.33;3.67;;;;;16.39;92.50;98719.94;5038963;28;45364;-41
2023/10/19 05:52:43;;;;;;;;;4.00;2.67;;;;;16.44;92.55;98725.47;5021107;28;45440;-41
2023/10/19 05:55:12;;;;;;;;;1.00;0.00;;;;;16.48;92.31;98739.22;5038544;28;47080;-41
2023/10/19 05:57:42;;;;;;;;;7.00;5.00;;;;;16.49;92.13;98733.63;5038814;28;45400;-41
2023/10/19 06:00:12;;;;;;;;;5.33;3.00;;;;;16.52;92.48;98726.94;5038619;28;45416;-41
2023/10/19 06:02:39;;;;;;;;;4.33;3.00;;;;;16.52;92.21;98740.38;5038910;28;45430;-41
2023/10/19 06:05:05;;;;;;;;;11.67;6.67;;;;;16.52;92.70;98743.91;5038579;28;46385;-40
2023/10/19 06:07:31;;;;;;;;;8.33;4.33;;;;;16.53;92.01;98734.78;5038306;28;45474;-41
2023/10/19 06:09:57;;;;;;;;;9.00;6.00;;;;;16.53;92.26;98733.97;5038137;28;45320;-41
2023/10/19 06:12:22;;;;;;;;;12.67;7.00;;;;;16.51;92.42;98730.69;5038520;28;45169;-42
2023/10/19 06:14:48;;;;;;;;;9.33;8.00;;;;;16.52;92.96;98716.22;5037947;28;46124;-41
2023/10/19 06:17:18;;;;;;;;;12.33;7.00;;;;;16.48;92.95;98689.06;5037794;28;48974;-41
2023/10/19 06:19:45;;;;;;;;;4.67;4.00;;;;;16.55;92.42;98705.81;5037959;28;45424;-39
2023/10/19 06:22:12;;;;;;;;;5.33;4.00;;;;;16.52;92.05;98702.78;5038209;28;45428;-41
2023/10/19 06:24:37;;;;;;;;;8.33;4.00;;;;;16.56;92.13;98707.47;5037687;28;46997;-41
2023/10/19 06:27:04;;;;;;;;;9.00;5.00;;;;;16.57;92.65;98697.56;5037874;28;45245;-41
2023/10/19 06:29:29;;;;;;;;;8.67;4.00;;;;;16.56;92.92;98702.13;5037969;28;45348;-43
2023/10/19 06:31:54;;;;;;;;;5.33;2.67;;;;;16.55;93.08;98697.78;5038014;28;45320;-41
2023/10/19 06:34:20;;;;;;;;;5.00;3.00;;;;;16.54;92.79;98698.84;5037683;28;47226;-40
2023/10/19 06:36:45;;;;;;;;;7.00;2.67;;;;;16.55;92.94;98697.78;5037827;28;45339;-41
2023/10/19 06:39:13;;;;;;;;;5.00;2.33;;;;;16.56;92.71;98695.91;5038097;28;45258;-40
2023/10/19 06:41:39;;;;;;;;;4.33;3.33;;;;;16.56;93.18;98702.13;5037908;28;45438;-40
2023/10/19 06:44:05;;;;;;;;;7.33;4.00;;;;;16.54;92.53;98692.66;5036411;28;46183;-39
2023/10/19 06:46:31;;;;;;;;;4.00;2.00;;;;;16.62;92.19;98711.91;5037456;28;45299;-40
2023/10/19 06:49:00;;;;;;;;;3.00;3.00;;;;;16.62;92.35;98705.72;5037701;28;45430;-41
2023/10/19 06:51:26;;;;;;;;;4.00;2.67;;;;;16.65;92.07;98708.75;5037762;28;45861;-40
2023/10/19 06:53:52;;;;;;;;;7.00;4.00;;;;;16.65;92.21;98700.69;5037249;28;47165;-41
2023/10/19 06:56:18;;;;;;;;;7.33;3.00;;;;;16.72;91.60;98703.22;5037694;28;45349;-41
2023/10/19 06:58:43;;;;;;;;;5.00;3.33;;;;;16.81;91.42;98701.88;5037589;28;45375;-40
2023/10/19 07:01:09;;;;;;;;;4.67;2.00;;;;;16.85;90.90;98711.06;5037772;28;45348;-40
2023/10/19 07:03:35;;;;;;;;;6.67;3.00;;;;;16.88;90.72;98705.22;5037484;28;45989;-38
2023/10/19 07:06:02;;;;;;;;;7.00;4.33;;;;;16.88;90.38;98704.41;5037702;28;45915;-41
2023/10/19 07:08:27;;;;;;;;;6.33;4.33;;;;;16.89;90.55;98700.66;5038122;28;45360;-41
2023/10/19 07:10:53;;;;;;;;;5.00;4.00;;;;;16.89;90.53;98706.03;5037859;28;45427;-40
2023/10/19 07:13:20;;;;;;;;;6.33;6.33;;;;;16.92;90.19;98689.44;5037646;28;46971;-43
2023/10/19 07:15:46;;;;;;;;;5.00;4.00;;;;;16.87;90.14;98681.28;5037241;28;45490;-42
2023/10/19 07:18:13;;;;;;;;;7.00;5.67;;;;;16.93;90.10;98691.88;5019479;28;45741;-40
2023/10/19 07:20:39;;;;;;;;;7.67;4.00;;;;;16.92;89.83;98689.44;5037690;28;45455;-40
2023/10/19 07:23:10;;;;;;;;;6.00;2.33;;;;;16.85;90.30;98692.25;5037132;28;45861;-40
2023/10/19 07:25:45;;;;;;;;;6.00;3.00;;;;;16.86;90.43;98695.78;5037298;28;45287;-42
2023/10/19 07:28:16;;;;;;;;;2.67;2.67;;;;;16.84;90.47;98703.25;5037392;28;45414;-42
2023/10/19 07:30:43;;;;;;;;;2.00;2.00;;;;;16.86;89.87;98682.34;5037205;28;45274;-43
2023/10/19 07:33:09;;;;;;;;;7.00;2.00;;;;;16.83;90.15;98683.63;5037172;28;46138;-42
2023/10/19 07:35:38;;;;;;;;;4.00;2.25;;;;;16.79;90.47;98684.34;5037120;28;45360;-44
2023/10/19 07:38:04;;;;;;;;;2.25;2.00;;;;;16.82;90.11;98673.16;5029460;28;45388;-41
2023/10/19 07:40:30;;;;;;;;;3.00;3.00;;;;;16.83;90.06;98664.84;5037175;28;45529;-40
2023/10/19 07:42:55;;;;;;;;;2.33;2.00;;;;;16.84;89.90;98673.72;5036980;28;45454;-40
2023/10/19 07:45:21;;;;;;;;;3.67;2.67;;;;;16.85;89.39;98661.91;5036646;28;45388;-41
2023/10/19 07:47:47;;;;;;;;;2.67;2.67;;;;;16.84;89.73;98649.53;5036965;28;45454;-40
2023/10/19 07:50:16;;;;;;;;;3.00;2.00;;;;;16.93;89.32;98650.78;5037334;28;45502;-41
2023/10/19 07:52:43;;;;;;;;;6.33;3.00;;;;;17.03;88.76;98655.56;5036726;28;47101;-41
2023/10/19 07:55:09;;;;;;;;;2.67;2.33;;;;;17.12;88.18;98646.06;5036541;28;45406;-41
2023/10/19 07:57:34;;;;;;;;;8.00;3.67;;;;;17.18;87.55;98656.66;5036922;28;45784;-41
2023/10/19 08:00:00;;;;;;;;;4.67;4.67;;;;;17.23;87.40;98655.91;5035994;28;45318;-41
2023/10/19 08:02:25;;;;;;;;;5.33;3.00;;;;;17.27;87.28;98665.13;5036664;28;46282;-39
2023/10/19 08:04:51;;;;;;;;;6.00;3.00;;;;;17.28;86.80;98655.22;5036513;28;45353;-40
2023/10/19 08:07:17;;;;;;;;;4.00;2.00;;;;;17.31;86.50;98676.22;5036892;28;45408;-40
2023/10/19 08:09:43;;;;;;;;;7.25;2.00;;;;;17.33;86.20;98669.56;5036732;28;45401;-40
2023/10/19 08:12:09;;;;;;;;;3.75;2.50;;;;;17.32;85.86;98667.94;5036395;28;46959;-40
2023/10/19 08:14:35;;;;;;;;;4.00;2.00;;;;;17.31;86.13;98665.47;5035377;28;45802;-40
2023/10/19 08:17:00;;;;;;;;;3.00;3.00;;;;;17.29;85.72;98654.97;5036398;28;45273;-40
2023/10/19 08:19:27;;;;;;;;;3.00;3.00;;;;;17.33;85.86;98650.75;5036834;28;45725;-40
2023/10/19 08:21:53;;;;;;;;;2.00;2.00;;;;;17.39;85.53;98644.38;5036394;28;45367;-40
2023/10/19 08:24:20;;;;;;;;;4.00;3.50;;;;;17.42;85.07;98643.09;5036305;28;45478;-40
2023/10/19 08:26:46;;;;;;;;;2.00;2.00;;;;;17.51;84.56;98648.91;5036537;28;45304;-40
2023/10/19 08:29:15;;;;;;;;;4.50;1.25;;;;;17.58;84.41;98646.88;5036379;28;45404;-42
2023/10/19 08:31:41;;;;;;;;;4.00;4.00;;;;;17.69;83.92;98648.66;5036296;28;46170;-40
2023/10/19 08:34:09;;;;;;;;;2.50;2.50;;;;;17.78;82.64;98638.34;5036239;28;45498;-38
2023/10/19 08:36:35;;;;;;;;;2.00;2.00;;;;;17.99;82.17;98644.84;5036418;28;45398;-41
2023/10/19 08:39:05;;;;;;;;;4.00;2.50;;;;;18.08;81.61;98633.44;5035838;28;45841;-41
2023/10/19 08:41:37;;;;;;;;;3.00;3.00;;;;;18.29;80.47;98644.50;5036087;28;47274;-41
2023/10/19 08:44:10;;;;;;;;;4.00;4.00;;;;;18.45;80.36;98638.22;5036496;28;45732;-42
2023/10/19 08:46:40;;;;;;;;;6.75;4.25;;;;;18.73;78.56;98637.28;5036013;28;45475;-41
2023/10/19 08:49:09;;;;;;;;;5.00;5.00;;;;;18.79;78.25;98638.97;5035133;28;45542;-41
2023/10/19 08:51:37;;;;;;;;;8.25;4.00;;;;;18.79;78.19;98638.97;5035935;28;46188;-41
2023/10/19 08:54:05;;;;;;;;;8.25;5.00;;;;;18.79;77.95;98646.22;5035945;28;45356;-40
2023/10/19 08:56:30;;;;;;;;;2.00;2.00;;;;;18.83;77.41;98644.66;5036009;28;45269;-41
2023/10/19 08:58:56;;;;;;;;;5.75;4.00;;;;;18.82;77.52;98632.25;5036238;28;45423;-41
2023/10/19 09:01:23;;;;;;;;;7.75;5.50;;;;;19.06;76.55;98632.81;5035842;28;46230;-41
2023/10/19 09:03:50;;;;;;;;;4.75;4.25;;;;;19.26;75.97;98637.59;5035722;28;45685;-41
2023/10/19 09:06:15;;;;;;;;;4.75;4.75;;;;;19.20;75.88;98637.53;5036005;28;45319;-41
2023/10/19 09:08:41;;;;;;;;;3.00;3.00;;;;;19.13;76.10;98630.72;5021339;28;45517;-41
2023/10/19 09:11:13;;;;;;;;;6.00;4.75;;;;;19.04;76.00;98641.13;5039269;28;46118;-39
2023/10/19 09:13:50;;;;;;;;;5.00;4.50;;;;;18.99;76.86;98633.00;5021562;28;45364;-42
2023/10/19 09:16:17;;;;;;;;;5.50;3.75;;;;;18.95;76.96;98635.38;5039732;28;45363;-41
2023/10/19 09:18:42;;;;;;;;;3.50;3.50;;;;;18.96;76.44;98633.50;5039364;28;45478;-41
2023/10/19 09:21:11;;;;;;;;;6.00;3.00;;;;;19.19;76.64;98637.78;5039172;28;46376;-42
2023/10/19 09:23:37;;;;;;;;;3.00;3.00;;;;;19.50;75.28;98632.69;5039187;28;45337;-42
2023/10/19 09:26:05;;;;;;;;;4.50;2.00;;;;;19.75;73.95;98627.53;5039620;28;45333;-41
2023/10/19 09:28:33;;;;;;;;;5.00;5.00;;;;;20.78;72.31;98616.28;5039514;28;45526;-41
2023/10/19 09:31:00;;;;;;;;;7.00;6.00;;;;;22.48;67.93;98609.81;5038947;28;47150;-40
2023/10/19 09:33:27;;;;;;;;;6.50;5.00;;;;;24.21;62.00;98613.25;5039021;28;45396;-42
2023/10/19 09:36:00;;;;;;;;;5.25;3.75;;;;;25.62;56.40;98598.91;5038467;28;45487;-42
2023/10/19 09:38:26;;;;;;;;;6.00;4.00;;;;;26.28;54.00;98577.03;5039226;28;45442;-41
2023/10/19 09:40:54;;;;;;;;;2.00;2.00;;;;;25.58;54.29;98576.09;5038888;28;46165;-40
2023/10/19 09:43:45;;;;;;;;;8.00;3.80;;;;;25.01;55.60;98571.78;5038667;28;45435;-40
2023/10/19 09:46:12;;;;;;;;;2.60;1.80;;;;;24.35;56.87;98570.72;5038752;28;45415;-40
2023/10/19 09:48:48;;;;;;;;;5.40;3.20;;;;;23.82;59.79;98571.56;5038904;28;45406;-41
2023/10/19 09:51:16;;;;;;;;;8.00;6.40;;;;;23.13;60.11;98567.22;5038478;28;46436;-42
2023/10/19 09:53:43;;;;;;;;;2.20;2.20;;;;;22.64;60.58;98576.97;5038426;28;45470;-42
2023/10/19 09:56:13;;;;;;;;;3.20;2.00;;;;;22.49;61.94;98595.97;5039170;28;45944;-41
2023/10/19 09:58:46;;;;;;;;;3.60;3.60;;;;;23.95;59.24;98580.13;5038686;28;45392;-41
2023/10/19 10:01:14;;;;;;;;;3.80;3.80;;;;;25.39;54.95;98578.03;5038584;28;47229;-40
2023/10/19 10:03:49;;;;;;;;;5.00;4.40;;;;;27.09;51.74;98563.59;5037791;28;45359;-41
2023/10/19 10:06:16;;;;;;;;;4.40;2.40;;;;;27.95;48.23;98566.16;5038677;28;45424;-42
2023/10/19 10:08:45;;;;;;;;;5.00;4.80;;;;;28.90;45.54;98575.78;5038851;28;45340;-40
2023/10/19 10:11:21;;;;;;;;;4.40;4.40;;;;;29.26;45.65;98557.16;5038025;28;45386;-41
2023/10/19 10:13:51;;;;;;;;;4.00;4.00;;;;;29.74;44.05;98571.75;5038515;28;45347;-41
2023/10/19 10:16:24;;;;;;;;;1.60;1.20;;;;;29.05;44.53;98548.78;5038756;28;45325;-42
2023/10/19 10:18:55;;;;;;;;;4.20;2.80;;;;;27.26;48.11;98571.97;5038770;28;45365;-42
2023/10/19 10:21:23;;;;;;;;;3.40;2.00;;;;;26.40;51.28;98574.59;5037831;28;45419;-41
2023/10/19 10:23:59;;;;;;;;;3.60;2.80;;;;;25.98;50.66;98560.16;5038220;28;45448;-42
2023/10/19 10:26:29;;;;;;;;;2.40;1.80;;;;;26.43;49.15;98552.19;5020596;28;45355;-42
2023/10/19 10:29:14;;;;;;;;;4.40;4.40;;;;;27.55;47.36;98537.94;5038496;28;45601;-41
2023/10/19 10:31:45;;;;;;;;;3.00;2.00;;;;;27.49;47.79;98547.38;5038229;28;47106;-39
2023/10/19 10:34:32;;;;;;;;;5.80;5.80;;;;;26.83;48.29;98555.97;5038070;28;45423;-38
2023/10/19 10:37:08;;;;;;;;;4.80;4.00;;;;;26.29;49.63;98545.94;5038052;28;45785;-39
2023/10/19 10:39:39;;;;;;;;;3.80;3.00;;;;;26.63;49.33;98545.50;5038310;28;45403;-40
2023/10/19 10:42:09;;;;;;;;;6.60;4.00;;;;;27.23;48.44;98528.09;5037886;28;45498;-40
2023/10/19 10:44:40;;;;;;;;;5.00;4.80;;;;;27.78;46.94;98536.03;5037773;28;45829;-40
2023/10/19 10:47:21;;;;;;;;;5.00;4.00;;;;;28.39;46.69;98520.66;5038357;28;45423;-39
2023/10/19 10:49:47;;;;;;;;;5.40;3.60;;;;;28.84;45.14;98513.00;5038087;28;45391;-40
2023/10/19 10:52:22;;;;;;;;;6.60;4.80;;;;;29.30;43.12;98516.22;5037826;28;45650;-40
2023/10/19 10:54:48;;;;;;;;;4.40;3.00;;;;;29.24;45.37;98512.84;5037509;28;45570;-40
2023/10/19 10:57:13;;;;;;;;;4.25;2.75;;;;;28.74;44.17;98504.31;5038080;28;45339;-40
2023/10/19 10:59:38;;;;;;;;;7.50;4.00;;;;;28.18;45.71;98505.94;5038047;28;45377;-40
2023/10/19 11:02:17;;;;;;;;;4.25;4.25;;;;;27.98;46.60;98501.84;5037560;28;46115;-41
2023/10/19 11:04:46;;;;;;;;;5.00;4.00;;;;;27.95;46.38;98492.38;5036594;28;45371;-40
2023/10/19 11:07:18;;;;;;;;;8.40;7.00;;;;;27.91;45.49;98474.19;5037715;28;45261;-40
2023/10/19 11:09:45;;;;;;;;;2.00;2.00;;;;;28.09;45.29;98479.38;5037822;28;45281;-40
2023/10/19 11:12:13;;;;;;;;;4.00;2.60;;;;;28.21;49.15;98467.84;5037624;28;45419;-41
2023/10/19 11:14:54;;;;;;;;;1.80;1.00;;;;;28.56;45.39;98482.41;5036859;28;45332;-40
2023/10/19 11:17:23;;;;;;;;;4.40;3.00;;;;;29.22;43.77;98481.44;5037596;28;45466;-40
2023/10/19 11:19:49;;;;;;;;;10.00;6.00;;;;;30.41;41.12;98476.97;5037395;28;45395;-40
2023/10/19 11:22:14;;;;;;;;;4.00;4.00;;;;;32.22;42.17;98473.56;5037148;28;46081;-41
2023/10/19 11:24:40;;;;;;;;;4.75;3.00;;;;;33.43;35.22;98470.81;5037106;28;45446;-41
2023/10/19 11:27:10;;;;;;;;;7.50;3.00;;;;;34.13;35.64;98465.50;5037464;28;45639;-40
2023/10/19 11:29:35;;;;;;;;;6.00;4.20;;;;;34.71;32.52;98464.84;5036942;28;45480;-40
2023/10/19 11:32:02;;;;;;;;;4.25;3.00;;;;;35.13;31.57;98464.91;5036031;28;46705;-40
2023/10/19 11:34:28;;;;;;;;;4.00;4.00;;;;;35.54;31.58;98470.84;5037157;28;45629;-42
2023/10/19 11:36:56;;;;;;;;;5.40;5.40;;;;;35.69;32.93;98464.41;5036475;28;45478;-40
2023/10/19 11:39:23;;;;;;;;;2.20;2.20;;;;;35.70;32.79;98465.97;5037493;28;45282;-40
2023/10/19 11:41:49;;;;;;;;;2.20;0.80;;;;;35.60;31.41;98463.03;5036134;28;45406;-41
2023/10/19 11:44:15;;;;;;;;;0.40;0.40;;;;;35.46;31.09;98458.03;5036398;28;45193;-40
2023/10/19 11:46:40;;;;;;;;;5.75;3.00;;;;;34.92;31.97;98451.44;5036915;28;48131;-41
2023/10/19 11:49:06;;;;;;;;;2.75;2.75;;;;;34.55;31.85;98445.56;5037167;28;45450;-41
2023/10/19 11:51:31;;;;;;;;;2.00;1.00;;;;;34.06;32.12;98442.47;5036881;28;45373;-40
2023/10/19 11:53:56;;;;;;;;;2.00;2.00;;;;;32.47;34.20;98430.34;5036860;28;45274;-40
2023/10/19 11:56:25;;;;;;;;;4.50;2.75;;;;;32.05;36.31;98430.59;5035867;28;45188;-41
2023/10/19 11:58:50;;;;;;;;;1.40;1.40;;;;;31.76;35.97;98431.63;5037109;28;45470;-39
2023/10/19 12:01:19;;;;;;;;;4.00;3.50;;;;;31.27;37.17;98442.53;5036524;28;46189;-40